createdAt,value
2019-04-20T00:01:47.567Z,99.90
2019-04-20T00:04:19.677Z,99.90
2019-04-20T00:06:48.363Z,99.90
2019-04-20T00:09:15.870Z,99.90
2019-04-20T00:11:49.371Z,99.90
2019-04-20T00:14:13.503Z,99.90
2019-04-20T00:16:34.191Z,99.90
2019-04-20T00:19:04.103Z,99.90
2019-04-20T00:21:57.739Z,99.90
2019-04-20T00:24:27.542Z,99.90
2019-04-20T00:29:35.550Z,99.90
2019-04-20T00:32:01.544Z,99.90
2019-04-20T00:34:24.157Z,99.90
2019-04-20T00:36:43.217Z,99.90
2019-04-20T00:39:13.147Z,99.90
2019-04-20T00:41:43.834Z,99.90
2019-04-20T00:44:12.273Z,99.90
2019-04-20T00:46:41.927Z,99.90
2019-04-20T00:49:17.620Z,99.90
2019-04-20T00:51:46.654Z,99.90
2019-04-20T00:53:58.761Z,99.90
2019-04-20T00:56:24.456Z,99.90
2019-04-20T00:59:06.417Z,99.90
2019-04-20T01:01:37.929Z,99.90
2019-04-20T01:04:05.526Z,99.90
2019-04-20T01:06:43.294Z,99.90
2019-04-20T01:08:53.020Z,99.90
2019-04-20T01:11:24.599Z,99.90
2019-04-20T01:13:52.721Z,99.90
2019-04-20T01:16:24.055Z,99.90
2019-04-20T01:18:43.714Z,99.90
2019-04-20T01:21:14.885Z,99.90
2019-04-20T01:23:43.807Z,99.90
2019-04-20T01:26:10.868Z,99.90
2019-04-20T01:28:46.426Z,99.90
2019-04-20T01:31:17.461Z,99.90
2019-04-20T01:33:43.804Z,99.90
2019-04-20T01:36:19.969Z,99.90
2019-04-20T01:38:42.789Z,99.90
2019-04-20T01:40:52.873Z,99.90
2019-04-20T01:43:20.626Z,99.90
2019-04-20T01:45:52.556Z,99.90
2019-04-20T01:48:22.887Z,99.90
2019-04-20T01:50:54.742Z,99.90
2019-04-20T01:53:23.662Z,99.90
2019-04-20T01:55:50.699Z,99.90
2019-04-20T01:58:33.746Z,99.90
2019-04-20T02:03:38.555Z,99.90
2019-04-20T02:06:06.199Z,99.90
2019-04-20T02:08:31.062Z,99.90
2019-04-20T02:11:00.579Z,99.90
2019-04-20T02:13:26.361Z,99.90
2019-04-20T02:15:56.369Z,99.90
2019-04-20T02:18:33.805Z,99.90
2019-04-20T02:21:04.916Z,99.90
2019-04-20T02:23:29.276Z,99.90
2019-04-20T02:25:44.003Z,99.90
2019-04-20T02:28:31.314Z,99.90
2019-04-20T02:31:15.591Z,99.90
2019-04-20T02:33:42.238Z,99.90
2019-04-20T02:36:20.946Z,99.90
2019-04-20T02:39:17.081Z,99.90
2019-04-20T02:41:18.111Z,99.90
2019-04-20T02:44:04.133Z,99.90
2019-04-20T02:46:14.798Z,99.90
2019-04-20T02:48:40.058Z,99.90
2019-04-20T02:51:16.522Z,99.90
2019-04-20T02:53:53.651Z,99.90
2019-04-20T02:58:39.091Z,99.90
2019-04-20T03:00:52.819Z,99.90
2019-04-20T03:03:09.967Z,99.90
2019-04-20T03:05:38.208Z,99.90
2019-04-20T03:08:13.710Z,99.90
2019-04-20T03:10:50.579Z,99.90
2019-04-20T03:13:14.506Z,99.90
2019-04-20T03:15:44.521Z,99.90
2019-04-20T03:18:12.079Z,99.90
2019-04-20T03:20:37.843Z,99.90
2019-04-20T03:25:38.278Z,99.90
2019-04-20T03:28:05.200Z,99.90
2019-04-20T03:31:15.624Z,99.90
2019-04-20T03:33:12.743Z,99.90
2019-04-20T03:35:35.468Z,99.90
2019-04-20T03:38:01.647Z,99.90
2019-04-20T03:40:19.299Z,99.90
2019-04-20T03:42:30.869Z,99.90
2019-04-20T03:45:04.104Z,99.90
2019-04-20T03:47:36.972Z,99.90
2019-04-20T03:50:18.546Z,99.90
2019-04-20T03:52:40.373Z,99.90
2019-04-20T03:55:17.487Z,99.90
2019-04-20T04:00:45.739Z,99.90
2019-04-20T04:03:44.099Z,99.90
2019-04-20T04:06:07.740Z,99.90
2019-04-20T04:08:27.712Z,99.90
2019-04-20T04:11:09.795Z,99.90
2019-04-20T04:13:16.943Z,99.90
2019-04-20T04:15:50.060Z,99.90
2019-04-20T04:18:17.863Z,99.90
2019-04-20T04:20:46.706Z,99.90
2019-04-20T04:23:27.066Z,99.90
2019-04-20T04:25:55.740Z,99.90
2019-04-20T04:28:22.310Z,99.90
2019-04-20T04:30:40.538Z,99.90
2019-04-20T04:33:44.627Z,99.90
2019-04-20T04:35:39.116Z,99.90
2019-04-20T04:38:06.691Z,99.90
2019-04-20T04:40:53.232Z,99.90
2019-04-20T04:43:10.389Z,99.90
2019-04-20T04:45:19.366Z,99.90
2019-04-20T04:47:45.102Z,99.90
2019-04-20T04:50:17.677Z,99.90
2019-04-20T04:52:52.180Z,99.90
2019-04-20T04:55:22.070Z,99.90
2019-04-20T04:57:36.694Z,99.90
2019-04-20T05:00:05.543Z,99.90
2019-04-20T05:02:39.310Z,99.90
2019-04-20T05:05:23.860Z,99.90
2019-04-20T05:07:45.129Z,99.90
2019-04-20T05:09:56.985Z,99.90
2019-04-20T05:12:28.383Z,99.90
2019-04-20T05:15:01.937Z,99.90
2019-04-20T05:17:39.323Z,99.90
2019-04-20T05:20:02.572Z,99.90
2019-04-20T05:25:32.194Z,99.90
2019-04-20T05:28:04.440Z,99.90
2019-04-20T05:30:09.737Z,99.90
2019-04-20T05:32:46.926Z,99.90
2019-04-20T05:35:29.523Z,99.90
2019-04-20T05:38:01.122Z,99.90
2019-04-20T05:40:22.341Z,99.90
2019-04-20T05:42:59.485Z,99.90
2019-04-20T05:45:25.170Z,99.90
2019-04-20T05:47:55.151Z,99.90
2019-04-20T05:50:26.639Z,99.90
2019-04-20T05:52:59.745Z,99.90
2019-04-20T05:55:22.426Z,99.90
2019-04-20T05:57:56.399Z,99.90
2019-04-20T06:00:18.999Z,99.90
2019-04-20T06:02:46.841Z,99.90
2019-04-20T06:05:20.670Z,99.90
2019-04-20T06:07:42.006Z,99.90
2019-04-20T06:10:16.196Z,99.90
2019-04-20T06:12:35.764Z,99.90
2019-04-20T06:15:04.590Z,99.90
2019-04-20T06:17:53.192Z,99.90
2019-04-20T06:20:20.275Z,99.90
2019-04-20T06:22:49.687Z,99.90
2019-04-20T06:25:32.845Z,99.90
2019-04-20T06:27:47.184Z,99.90
2019-04-20T06:30:08.275Z,99.90
2019-04-20T06:32:51.020Z,99.90
2019-04-20T06:35:33.605Z,99.90
2019-04-20T06:37:53.765Z,99.90
2019-04-20T06:40:29.559Z,99.90
2019-04-20T06:42:41.062Z,99.90
2019-04-20T06:45:14.839Z,99.90
2019-04-20T06:47:44.134Z,99.90
2019-04-20T06:50:12.269Z,99.90
2019-04-20T06:52:34.438Z,99.90
2019-04-20T06:55:05.586Z,99.90
2019-04-20T06:57:50.770Z,99.90
2019-04-20T07:00:07.373Z,99.90
2019-04-20T07:02:35.718Z,99.90
2019-04-20T07:05:00.087Z,99.90
2019-04-20T07:07:29.876Z,99.90
2019-04-20T07:12:24.350Z,99.90
2019-04-20T07:14:43.960Z,99.90
2019-04-20T07:17:32.953Z,99.90
2019-04-20T07:19:48.717Z,99.90
2019-04-20T07:22:36.093Z,99.90
2019-04-20T07:24:55.197Z,99.90
2019-04-20T07:27:14.910Z,99.90
2019-04-20T07:29:48.759Z,99.90
2019-04-20T07:32:01.808Z,99.90
2019-04-20T07:34:46.956Z,99.90
2019-04-20T07:37:33.024Z,99.90
2019-04-20T07:39:33.067Z,99.90
2019-04-20T07:42:01.348Z,99.90
2019-04-20T07:44:35.982Z,99.90
2019-04-20T07:47:04.348Z,99.90
2019-04-20T07:49:24.808Z,99.90
2019-04-20T07:51:36.726Z,99.90
2019-04-20T07:54:28.535Z,99.90
2019-04-20T07:56:47.685Z,99.90
2019-04-20T07:59:09.585Z,99.90
2019-04-20T08:04:42.264Z,99.90
2019-04-20T08:06:58.535Z,99.90
2019-04-20T08:09:28.892Z,99.90
2019-04-20T08:12:22.067Z,99.90
2019-04-20T08:14:53.965Z,99.90
2019-04-20T08:17:20.373Z,99.90
2019-04-20T08:19:35.351Z,99.90
2019-04-20T08:22:10.776Z,99.90
2019-04-20T08:24:27.705Z,99.90
2019-04-20T08:26:47.147Z,99.90
2019-04-20T08:29:32.761Z,99.90
2019-04-20T08:32:10.368Z,99.90
2019-04-20T08:34:42.983Z,99.90
2019-04-20T08:37:01.413Z,99.90
2019-04-20T08:39:45.453Z,99.90
2019-04-20T08:42:02.058Z,99.90
2019-04-20T08:44:49.973Z,99.90
2019-04-20T08:47:14.494Z,99.90
2019-04-20T08:49:35.286Z,99.90
2019-04-20T08:52:01.874Z,99.90
2019-04-20T08:54:21.744Z,99.90
2019-04-20T08:56:39.363Z,99.90
2019-04-20T08:58:59.633Z,99.90
2019-04-20T09:01:29.118Z,99.90
2019-04-20T09:04:02.099Z,99.90
2019-04-20T09:06:37.591Z,99.90
2019-04-20T09:09:07.610Z,99.90
2019-04-20T09:11:45.192Z,99.90
2019-04-20T09:13:51.547Z,99.90
2019-04-20T09:16:13.172Z,99.90
2019-04-20T09:18:49.362Z,99.90
2019-04-20T09:21:20.008Z,99.90
2019-04-20T09:23:51.814Z,99.90
2019-04-20T09:26:20.802Z,99.90
2019-04-20T09:31:40.773Z,99.90
2019-04-20T09:34:13.370Z,99.90
2019-04-20T09:36:37.475Z,99.90
2019-04-20T09:39:15.293Z,99.90
2019-04-20T09:41:59.731Z,99.90
2019-04-20T09:44:13.502Z,99.90
2019-04-20T09:46:46.466Z,99.90
2019-04-20T09:49:20.779Z,99.90
2019-04-20T09:51:51.194Z,99.90
2019-04-20T09:54:22.983Z,99.90
2019-04-20T09:56:48.351Z,99.90
2019-04-20T09:59:22.711Z,99.90
2019-04-20T10:01:36.497Z,99.90
2019-04-20T10:03:57.060Z,99.90
2019-04-20T10:06:27.284Z,99.90
2019-04-20T10:08:55.954Z,99.90
2019-04-20T10:11:21.128Z,99.90
2019-04-20T10:13:48.140Z,99.90
2019-04-20T10:16:15.632Z,99.90
2019-04-20T10:18:46.804Z,99.90
2019-04-20T10:21:11.697Z,99.90
2019-04-20T10:23:38.712Z,99.90
2019-04-20T10:26:06.766Z,99.90
2019-04-20T10:28:33.858Z,99.90
2019-04-20T10:31:02.282Z,99.90
2019-04-20T10:33:29.451Z,99.90
2019-04-20T10:35:57.439Z,99.90
2019-04-20T10:38:27.873Z,99.90
2019-04-20T10:41:04.226Z,99.90
2019-04-20T10:43:22.329Z,99.90
2019-04-20T10:45:50.919Z,99.90
2019-04-20T10:48:17.501Z,99.90
2019-04-20T10:50:45.169Z,99.80
2019-04-20T10:53:14.002Z,99.90
2019-04-20T10:55:40.292Z,99.90
2019-04-20T10:58:07.854Z,99.90
2019-04-20T11:00:39.596Z,99.90
2019-04-20T11:03:08.098Z,99.90
2019-04-20T11:05:35.368Z,99.90
2019-04-20T11:08:04.276Z,99.40
2019-04-20T11:10:46.864Z,98.90
2019-04-20T11:12:59.659Z,98.60
2019-04-20T11:15:28.233Z,98.60
2019-04-20T11:17:55.363Z,99.20
2019-04-20T11:20:23.471Z,99.20
2019-04-20T11:22:50.534Z,99.20
2019-04-20T11:25:19.833Z,99.00
2019-04-20T11:27:46.176Z,99.00
2019-04-20T11:30:14.506Z,98.20
2019-04-20T11:32:42.202Z,98.20
2019-04-20T11:35:21.303Z,98.00
2019-04-20T11:37:39.149Z,98.00
2019-04-20T11:40:06.527Z,97.70
2019-04-20T11:42:34.171Z,97.60
2019-04-20T11:45:02.737Z,98.00
2019-04-20T11:47:29.642Z,98.00
2019-04-20T11:49:57.621Z,98.50
2019-04-20T11:52:25.419Z,98.20
2019-04-20T11:54:54.640Z,97.10
2019-04-20T11:57:21.623Z,97.00
2019-04-20T11:59:49.165Z,97.40
2019-04-20T12:02:30.159Z,96.00
2019-04-20T12:05:06.400Z,96.70
2019-04-20T12:07:19.237Z,96.00
2019-04-20T12:09:49.425Z,96.00
2019-04-20T12:12:29.291Z,94.80
2019-04-20T12:14:46.335Z,94.80
2019-04-20T12:17:13.616Z,95.00
2019-04-20T12:19:41.839Z,94.50
2019-04-20T12:22:09.726Z,93.70
2019-04-20T12:24:38.151Z,92.80
2019-04-20T12:27:06.982Z,92.40
2019-04-20T12:29:34.403Z,93.10
2019-04-20T12:32:05.474Z,92.90
2019-04-20T12:34:30.705Z,92.10
2019-04-20T12:36:58.253Z,90.30
2019-04-20T12:39:24.951Z,88.80
2019-04-20T12:41:56.735Z,88.60
2019-04-20T12:44:19.988Z,90.40
2019-04-20T12:46:47.824Z,87.00
2019-04-20T12:49:15.823Z,88.80
2019-04-20T12:51:50.677Z,86.20
2019-04-20T12:54:10.885Z,83.60
2019-04-20T12:56:40.492Z,84.60
2019-04-20T12:59:07.588Z,82.70
2019-04-20T13:01:35.444Z,82.00
2019-04-20T13:04:04.546Z,81.20
2019-04-20T13:06:30.381Z,78.40
2019-04-20T13:09:00.379Z,79.50
2019-04-20T13:11:29.175Z,74.10
2019-04-20T13:14:28.355Z,67.10
2019-04-20T13:16:55.183Z,67.10
2019-04-20T13:19:23.491Z,66.00
2019-04-20T13:21:51.115Z,66.50
2019-04-20T13:24:18.861Z,64.70
2019-04-20T13:26:47.048Z,62.30
2019-04-20T13:29:15.003Z,62.30
2019-04-20T13:31:42.207Z,63.90
2019-04-20T13:34:09.788Z,62.70
2019-04-20T13:36:38.032Z,60.10
2019-04-20T13:39:06.025Z,59.60
2019-04-20T13:41:33.742Z,59.10
2019-04-20T13:44:02.854Z,58.40
2019-04-20T13:46:29.101Z,60.20
2019-04-20T13:48:55.479Z,59.50
2019-04-20T13:51:23.811Z,59.00
2019-04-20T13:53:51.367Z,58.40
2019-04-20T13:56:19.718Z,57.30
2019-04-20T13:58:47.783Z,57.40
2019-04-20T14:01:26.871Z,56.00
2019-04-20T14:06:55.551Z,55.00
2019-04-20T14:09:23.509Z,55.90
2019-04-20T14:11:51.737Z,55.70
2019-04-20T14:14:19.253Z,55.50
2019-04-20T14:16:47.295Z,55.50
2019-04-20T14:19:14.450Z,55.00
2019-04-20T14:21:41.769Z,54.30
2019-04-20T14:24:08.992Z,56.30
2019-04-20T14:26:39.424Z,55.00
2019-04-20T14:29:05.055Z,55.70
2019-04-20T14:31:32.164Z,55.60
2019-04-20T14:33:59.283Z,54.60
2019-04-20T14:36:26.859Z,53.10
2019-04-20T14:38:54.429Z,52.20
2019-04-20T14:41:22.380Z,50.70
2019-04-20T14:43:51.234Z,47.30
2019-04-20T14:46:18.795Z,47.20
2019-04-20T14:48:46.820Z,44.70
2019-04-20T14:51:13.929Z,42.40
2019-04-20T14:53:43.267Z,41.20
2019-04-20T14:56:11.402Z,40.60
2019-04-20T14:58:57.619Z,37.80
2019-04-20T15:01:27.872Z,36.60
2019-04-20T15:03:59.806Z,36.90
2019-04-20T15:06:23.360Z,36.40
2019-04-20T15:08:50.643Z,37.50
2019-04-20T15:11:18.813Z,37.90
2019-04-20T15:13:46.857Z,38.10
2019-04-20T15:16:14.889Z,36.90
2019-04-20T15:18:42.910Z,36.40
2019-04-20T15:21:11.723Z,35.40
2019-04-20T15:23:39.556Z,35.80
2019-04-20T15:26:06.892Z,37.00
2019-04-20T15:28:34.502Z,36.20
2019-04-20T15:31:02.480Z,35.80
2019-04-20T15:33:30.769Z,37.70
2019-04-20T15:35:57.879Z,35.30
2019-04-20T15:38:24.994Z,35.00
2019-04-20T15:40:53.259Z,36.60
2019-04-20T15:43:24.030Z,35.50
2019-04-20T15:45:47.753Z,34.30
2019-04-20T15:48:16.310Z,33.50
2019-04-20T15:50:43.744Z,34.80
2019-04-20T15:53:11.325Z,34.20
2019-04-20T15:55:41.393Z,34.20
2019-04-20T15:58:07.098Z,34.50
2019-04-20T16:00:36.309Z,35.60
2019-04-20T16:06:03.259Z,35.10
2019-04-20T16:08:30.271Z,36.90
2019-04-20T16:10:57.487Z,38.00
2019-04-20T16:13:32.293Z,37.10
2019-04-20T16:15:53.783Z,37.30
2019-04-20T16:18:21.353Z,38.20
2019-04-20T16:21:00.419Z,38.10
2019-04-20T16:23:20.684Z,41.30
2019-04-20T16:25:53.489Z,41.30
2019-04-20T16:28:21.628Z,41.70
2019-04-20T16:30:49.733Z,40.70
2019-04-20T16:33:16.558Z,43.10
2019-04-20T16:35:44.603Z,42.90
2019-04-20T16:38:14.075Z,42.10
2019-04-20T16:40:40.397Z,41.90
2019-04-20T16:43:17.651Z,42.90
2019-04-20T16:45:35.558Z,42.50
2019-04-20T16:48:05.034Z,43.80
2019-04-20T16:50:33.187Z,43.60
2019-04-20T16:53:01.131Z,43.60
2019-04-20T16:55:28.480Z,43.70
2019-04-20T16:57:57.495Z,45.00
2019-04-20T17:00:25.453Z,44.90
2019-04-20T17:02:52.612Z,44.80
2019-04-20T17:05:20.993Z,45.70
2019-04-20T17:07:49.414Z,45.40
2019-04-20T17:10:17.961Z,46.40
2019-04-20T17:12:46.044Z,45.50
2019-04-20T17:15:14.022Z,46.20
2019-04-20T17:17:40.722Z,45.30
2019-04-20T17:20:09.286Z,45.80
2019-04-20T17:22:37.278Z,46.30
2019-04-20T17:25:06.018Z,46.00
2019-04-20T17:30:29.454Z,46.40
2019-04-20T17:32:57.901Z,46.40
2019-04-20T17:35:40.664Z,48.30
2019-04-20T17:37:54.459Z,48.00
2019-04-20T17:40:41.903Z,47.90
2019-04-20T17:43:02.575Z,47.40
2019-04-20T17:45:28.244Z,48.10
2019-04-20T17:48:02.118Z,48.40
2019-04-20T17:50:31.830Z,49.00
2019-04-20T17:52:59.332Z,48.60
2019-04-20T17:58:13.750Z,49.00
2019-04-20T18:00:44.155Z,50.40
2019-04-20T18:03:44.746Z,51.30
2019-04-20T18:05:59.710Z,51.20
2019-04-20T18:08:29.996Z,52.20
2019-04-20T18:10:54.160Z,54.70
2019-04-20T18:13:14.291Z,55.70
2019-04-20T18:15:49.050Z,56.30
2019-04-20T18:18:36.367Z,56.90
2019-04-20T18:20:48.614Z,57.10
2019-04-20T18:23:25.481Z,57.90
2019-04-20T18:26:08.424Z,59.80
2019-04-20T18:28:27.482Z,60.20
2019-04-20T18:30:52.580Z,61.90
2019-04-20T18:33:12.057Z,63.20
2019-04-20T18:35:44.377Z,63.80
2019-04-20T18:38:12.589Z,64.80
2019-04-20T18:40:44.816Z,65.80
2019-04-20T18:43:10.353Z,65.70
2019-04-20T18:45:46.806Z,65.70
2019-04-20T18:48:15.808Z,67.40
2019-04-20T18:50:32.625Z,66.70
2019-04-20T18:52:53.984Z,66.80
2019-04-20T18:55:30.391Z,68.60
2019-04-20T18:57:49.273Z,69.40
2019-04-20T19:00:22.791Z,70.50
2019-04-20T19:02:49.138Z,71.60
2019-04-20T19:05:13.627Z,71.00
2019-04-20T19:07:48.033Z,72.30
2019-04-20T19:10:16.253Z,73.00
2019-04-20T19:12:43.999Z,74.20
2019-04-20T19:15:28.190Z,75.60
2019-04-20T19:17:45.235Z,76.70
2019-04-20T19:20:04.128Z,80.10
2019-04-20T19:22:30.261Z,79.20
2019-04-20T19:24:57.982Z,79.60
2019-04-20T19:27:35.885Z,80.40
2019-04-20T19:30:01.486Z,80.30
2019-04-20T19:32:38.173Z,80.20
2019-04-20T19:34:59.356Z,80.00
2019-04-20T19:37:26.007Z,79.10
2019-04-20T19:39:58.511Z,79.40
2019-04-20T19:42:23.060Z,80.60
2019-04-20T19:44:55.755Z,82.20
2019-04-20T19:47:28.424Z,82.60
2019-04-20T19:49:44.186Z,84.20
2019-04-20T19:52:30.951Z,86.50
2019-04-20T19:54:50.720Z,86.90
2019-04-20T19:57:16.290Z,87.30
2019-04-20T19:59:35.586Z,87.70
2019-04-20T20:01:55.978Z,88.70
2019-04-20T20:04:23.860Z,89.30
2019-04-20T20:06:57.912Z,90.10
2019-04-20T20:09:19.915Z,90.50
2019-04-20T20:11:46.816Z,90.50
2019-04-20T20:14:17.980Z,90.90
2019-04-20T20:17:01.509Z,91.40
2019-04-20T20:19:27.413Z,92.00
2019-04-20T20:21:54.471Z,92.30
2019-04-20T20:24:11.265Z,92.20
2019-04-20T20:26:40.719Z,92.20
2019-04-20T20:29:11.890Z,92.70
2019-04-20T20:31:48.579Z,93.00
2019-04-20T20:34:10.634Z,93.10
2019-04-20T20:36:39.473Z,92.50
2019-04-20T20:39:03.377Z,92.80
2019-04-20T20:41:28.934Z,93.00
2019-04-20T20:44:02.367Z,93.30
2019-04-20T20:46:27.447Z,93.20
2019-04-20T20:51:39.173Z,92.20
2019-04-20T20:53:51.859Z,91.50
2019-04-20T20:56:18.486Z,91.90
2019-04-20T20:58:49.736Z,92.00
2019-04-20T21:01:14.130Z,92.20
2019-04-20T21:03:40.434Z,92.80
2019-04-20T21:06:03.525Z,93.70
2019-04-20T21:08:31.620Z,94.30
2019-04-20T21:11:00.155Z,94.30
2019-04-20T21:13:33.239Z,94.20
2019-04-20T21:16:02.859Z,94.80
2019-04-20T21:18:43.547Z,94.40
2019-04-20T21:21:10.285Z,94.60
2019-04-20T21:23:33.766Z,95.00
2019-04-20T21:25:52.279Z,95.50
2019-04-20T21:28:20.670Z,95.50
2019-04-20T21:30:49.013Z,95.80
2019-04-20T21:33:16.460Z,95.80
2019-04-20T21:35:47.040Z,94.60
2019-04-20T21:38:13.357Z,95.10
2019-04-20T21:40:42.669Z,94.00
2019-04-20T21:43:07.432Z,94.40
2019-04-20T21:45:37.463Z,94.70
2019-04-20T21:48:08.333Z,94.00
2019-04-20T21:50:50.875Z,94.70
2019-04-20T21:53:06.019Z,94.60
2019-04-20T21:55:24.131Z,94.30
2019-04-20T21:57:55.373Z,94.60
2019-04-20T22:00:34.215Z,94.50
2019-04-20T22:02:57.614Z,94.50
2019-04-20T22:05:21.133Z,94.90
2019-04-20T22:07:48.507Z,95.10
2019-04-20T22:10:20.174Z,95.40
2019-04-20T22:12:50.550Z,95.60
2019-04-20T22:15:19.736Z,95.80
2019-04-20T22:17:39.828Z,95.80
2019-04-20T22:20:20.070Z,96.50
2019-04-20T22:22:53.640Z,96.10
2019-04-20T22:25:26.568Z,96.10
2019-04-20T22:27:34.980Z,94.80
2019-04-20T22:29:59.942Z,94.40
2019-04-20T22:32:28.013Z,93.60
2019-04-20T22:35:01.334Z,94.40
2019-04-20T22:37:28.340Z,95.00
2019-04-20T22:39:55.708Z,95.20
2019-04-20T22:42:18.702Z,95.40
2019-04-20T22:44:47.976Z,96.10
2019-04-20T22:47:20.849Z,96.00
2019-04-20T22:49:52.949Z,95.50
2019-04-20T22:52:26.220Z,95.40
2019-04-20T22:54:52.174Z,95.90
2019-04-20T22:57:12.659Z,96.30
2019-04-20T22:59:43.272Z,96.40
2019-04-20T23:02:01.158Z,96.80
2019-04-20T23:04:28.414Z,97.20
2019-04-20T23:06:57.144Z,97.20
2019-04-20T23:09:24.730Z,97.10
2019-04-20T23:11:54.659Z,97.00
2019-04-20T23:14:22.493Z,97.30
2019-04-20T23:16:53.760Z,97.70
2019-04-20T23:19:30.034Z,97.50
2019-04-20T23:21:48.759Z,97.30
2019-04-20T23:24:14.637Z,97.80
2019-04-20T23:26:43.572Z,98.00
2019-04-20T23:29:09.579Z,98.00
2019-04-20T23:31:39.014Z,98.30
2019-04-20T23:34:12.846Z,98.40
2019-04-20T23:36:37.225Z,98.50
2019-04-20T23:39:03.048Z,98.40
2019-04-20T23:41:27.997Z,99.30
2019-04-20T23:44:01.891Z,98.70
2019-04-20T23:46:30.205Z,98.80
2019-04-20T23:49:01.729Z,98.90
2019-04-20T23:51:52.543Z,98.70
2019-04-20T23:54:05.998Z,99.20
2019-04-20T23:56:24.149Z,99.10
2019-04-20T23:58:53.410Z,99.30
